createdAt,value
2023-04-12T00:00:56.096Z,1.75
2023-04-12T00:03:22.654Z,1.75
2023-04-12T00:05:54.655Z,1.73
2023-04-12T00:08:26.548Z,1.70
2023-04-12T00:10:53.284Z,1.68
2023-04-12T00:13:19.779Z,1.69
2023-04-12T00:15:46.901Z,1.71
2023-04-12T00:18:13.508Z,1.75
2023-04-12T00:20:40.067Z,1.68
2023-04-12T00:23:06.839Z,1.61
2023-04-12T00:25:33.553Z,1.60
2023-04-12T00:27:59.988Z,1.65
2023-04-12T00:30:26.504Z,1.57
2023-04-12T00:32:53.131Z,1.64
2023-04-12T00:35:19.643Z,1.61
2023-04-12T00:37:46.000Z,1.65
2023-04-12T00:40:12.716Z,1.62
2023-04-12T00:42:39.500Z,1.56
2023-04-12T00:45:06.928Z,1.79
2023-04-12T00:47:35.696Z,1.76
2023-04-12T00:50:03.596Z,1.69
2023-04-12T00:52:34.171Z,1.66
2023-04-12T00:55:04.686Z,1.61
2023-04-12T00:57:37.040Z,1.55
2023-04-12T01:00:13.986Z,1.53
2023-04-12T01:02:51.108Z,1.50
2023-04-12T01:05:22.663Z,1.44
2023-04-12T01:08:19.358Z,1.44
2023-04-12T01:11:02.871Z,1.49
2023-04-12T01:13:36.298Z,1.67
2023-04-12T01:16:40.716Z,1.64
2023-04-12T01:19:37.513Z,1.70
2023-04-12T01:22:18.172Z,1.61
2023-04-12T01:25:03.612Z,1.82
2023-04-12T01:27:48.772Z,1.73
2023-04-12T01:30:17.513Z,1.61
2023-04-12T01:32:47.012Z,1.49
2023-04-12T01:35:14.929Z,1.51
2023-04-12T01:37:41.705Z,1.47
2023-04-12T01:40:10.053Z,1.45
2023-04-12T01:42:36.706Z,1.41
2023-04-12T01:45:03.486Z,1.43
2023-04-12T01:47:31.213Z,1.51
2023-04-12T01:50:12.238Z,1.53
2023-04-12T01:52:43.129Z,1.66
2023-04-12T01:55:10.326Z,1.77
2023-04-12T01:57:37.704Z,1.63
2023-04-12T02:00:07.786Z,1.65
2023-04-12T02:02:36.595Z,1.61
2023-04-12T02:05:04.815Z,1.61
2023-04-12T02:07:31.401Z,1.55
2023-04-12T02:09:57.943Z,1.47
2023-04-12T02:12:24.486Z,1.43
2023-04-12T02:14:52.125Z,1.48
2023-04-12T02:17:22.882Z,1.52
2023-04-12T02:19:51.502Z,1.34
2023-04-12T02:22:20.031Z,1.22
2023-04-12T02:24:49.551Z,1.24
2023-04-12T02:27:18.826Z,1.14
2023-04-12T02:29:45.826Z,1.02
2023-04-12T02:32:12.919Z,0.94
2023-04-12T02:34:39.986Z,0.88
2023-04-12T02:37:07.405Z,0.85
2023-04-12T02:39:34.547Z,0.78
2023-04-12T02:42:01.735Z,0.81
2023-04-12T02:44:31.486Z,0.73
2023-04-12T02:46:58.041Z,0.73
2023-04-12T02:49:24.423Z,0.66
2023-04-12T02:51:51.141Z,0.78
2023-04-12T02:54:17.494Z,0.71
2023-04-12T02:56:43.955Z,0.61
2023-04-12T02:59:12.407Z,0.60
2023-04-12T03:01:39.942Z,0.49
2023-04-12T03:04:07.656Z,0.42
2023-04-12T03:06:34.799Z,0.44
2023-04-12T03:09:01.449Z,0.39
2023-04-12T03:11:28.015Z,0.33
2023-04-12T03:13:55.218Z,0.30
2023-04-12T03:16:29.627Z,0.27
2023-04-12T03:18:56.906Z,0.19
2023-04-12T03:21:23.444Z,0.20
2023-04-12T03:23:49.940Z,0.16
2023-04-12T03:26:20.367Z,0.39
2023-04-12T03:28:47.960Z,0.67
2023-04-12T03:31:15.287Z,0.71
2023-04-12T03:33:42.403Z,0.60
2023-04-12T03:36:09.844Z,0.57
2023-04-12T03:38:36.349Z,0.61
2023-04-12T03:41:02.895Z,0.71
2023-04-12T03:43:35.767Z,0.75
2023-04-12T03:46:03.719Z,0.70
2023-04-12T03:48:30.390Z,0.69
2023-04-12T03:50:59.663Z,0.62
2023-04-12T03:53:31.444Z,0.57
2023-04-12T03:55:58.222Z,0.67
2023-04-12T03:58:24.684Z,0.71
2023-04-12T04:00:51.199Z,0.72
2023-04-12T04:03:18.378Z,0.70
2023-04-12T04:05:45.267Z,0.72
2023-04-12T04:08:11.808Z,0.81
2023-04-12T04:10:39.315Z,0.83
2023-04-12T04:13:05.734Z,0.84
2023-04-12T04:15:32.907Z,0.73
2023-04-12T04:17:59.442Z,0.61
2023-04-12T04:20:27.839Z,0.56
2023-04-12T04:22:55.000Z,0.50
2023-04-12T04:25:21.841Z,0.46
2023-04-12T04:27:49.506Z,0.43
2023-04-12T04:30:16.917Z,0.46
2023-04-12T04:32:43.757Z,0.44
2023-04-12T04:35:10.382Z,0.40
2023-04-12T04:37:37.185Z,0.40
2023-04-12T04:40:11.450Z,0.48
2023-04-12T04:42:39.800Z,0.51
2023-04-12T04:45:13.624Z,0.52
2023-04-12T04:47:40.757Z,0.75
2023-04-12T04:50:07.873Z,0.88
2023-04-12T04:52:34.356Z,0.96
2023-04-12T04:55:00.914Z,0.86
2023-04-12T04:57:27.735Z,0.81
2023-04-12T04:59:54.254Z,0.84
2023-04-12T05:02:21.410Z,1.03
2023-04-12T05:04:48.002Z,0.90
2023-04-12T05:07:14.439Z,0.99
2023-04-12T05:09:41.289Z,1.02
2023-04-12T05:12:08.346Z,1.09
2023-04-12T05:14:45.942Z,1.12
2023-04-12T05:17:14.382Z,1.20
2023-04-12T05:19:41.460Z,1.33
2023-04-12T05:22:08.545Z,1.38
2023-04-12T05:24:34.979Z,1.67
2023-04-12T05:27:01.962Z,2.27
2023-04-12T05:29:28.401Z,2.70
2023-04-12T05:31:55.135Z,3.38
2023-04-12T05:34:22.356Z,4.02
2023-04-12T05:36:49.569Z,3.58
2023-04-12T05:39:17.092Z,3.22
2023-04-12T05:41:44.908Z,3.20
2023-04-12T05:44:12.243Z,3.53
2023-04-12T05:46:39.132Z,4.04
2023-04-12T05:49:06.700Z,4.55
2023-04-12T05:51:40.968Z,4.88
2023-04-12T05:54:08.147Z,5.11
2023-04-12T05:56:35.239Z,5.47
2023-04-12T05:59:02.397Z,5.85
2023-04-12T06:01:35.103Z,6.05
2023-04-12T06:04:06.253Z,6.08
2023-04-12T06:06:33.773Z,6.49
2023-04-12T06:09:01.161Z,6.63
2023-04-12T06:11:28.053Z,6.71
2023-04-12T06:13:55.076Z,7.57
2023-04-12T06:16:22.496Z,8.56
2023-04-12T06:18:49.524Z,9.96
2023-04-12T06:21:16.345Z,9.61
2023-04-12T06:23:42.878Z,9.58
2023-04-12T06:26:09.757Z,10.88
2023-04-12T06:28:36.227Z,11.81
2023-04-12T06:31:04.165Z,12.13
2023-04-12T06:33:30.704Z,11.86
2023-04-12T06:35:57.846Z,12.46
2023-04-12T06:38:24.325Z,11.61
2023-04-12T06:40:50.818Z,12.66
2023-04-12T06:43:20.306Z,13.97
2023-04-12T06:45:46.871Z,14.43
2023-04-12T06:48:13.411Z,13.79
2023-04-12T06:50:40.039Z,13.96
2023-04-12T06:53:07.082Z,14.06
2023-04-12T06:55:33.615Z,14.48
2023-04-12T06:58:00.549Z,15.54
2023-04-12T07:00:27.410Z,14.47
2023-04-12T07:02:54.387Z,14.87
2023-04-12T07:05:21.173Z,14.61
2023-04-12T07:07:48.246Z,14.26
2023-04-12T07:10:14.759Z,14.28
2023-04-12T07:12:41.988Z,14.37
2023-04-12T07:15:09.063Z,14.84
2023-04-12T07:17:35.623Z,16.52
2023-04-12T07:20:02.239Z,18.18
2023-04-12T07:22:28.994Z,18.76
2023-04-12T07:24:55.366Z,18.51
2023-04-12T07:27:22.376Z,16.93
2023-04-12T07:29:52.036Z,16.40
2023-04-12T07:32:18.794Z,15.53
2023-04-12T07:34:45.332Z,14.08
2023-04-12T07:37:12.150Z,13.97
2023-04-12T07:39:40.513Z,15.36
2023-04-12T07:42:07.019Z,16.28
2023-04-12T07:44:35.586Z,16.73
2023-04-12T07:47:03.735Z,17.07
2023-04-12T07:49:30.115Z,17.15
2023-04-12T07:51:57.454Z,16.93
2023-04-12T07:54:27.277Z,16.98
2023-04-12T07:57:03.893Z,17.51
2023-04-12T07:59:31.563Z,17.25
2023-04-12T08:01:58.111Z,17.01
2023-04-12T08:04:24.715Z,17.39
2023-04-12T08:06:51.904Z,18.27
2023-04-12T08:09:18.434Z,17.41
2023-04-12T08:11:44.912Z,17.09
2023-04-12T08:14:11.467Z,16.74
2023-04-12T08:16:37.898Z,16.40
2023-04-12T08:19:04.357Z,16.48
2023-04-12T08:21:30.878Z,16.27
2023-04-12T08:23:57.856Z,16.49
2023-04-12T08:26:24.781Z,16.91
2023-04-12T08:28:51.310Z,16.74
2023-04-12T08:31:18.172Z,17.25
2023-04-12T08:33:44.633Z,16.61
2023-04-12T08:36:11.288Z,16.93
2023-04-12T08:38:45.562Z,16.35
2023-04-12T08:41:12.757Z,15.76
2023-04-12T08:43:44.057Z,15.92
2023-04-12T08:46:10.906Z,17.28
2023-04-12T08:48:38.327Z,16.89
2023-04-12T08:51:05.226Z,16.64
2023-04-12T08:53:32.034Z,16.33
2023-04-12T08:55:58.552Z,16.46
2023-04-12T08:58:25.676Z,16.79
2023-04-12T09:00:52.424Z,16.55
2023-04-12T09:03:21.958Z,15.81
2023-04-12T09:05:53.373Z,15.84
2023-04-12T09:08:19.776Z,16.17
2023-04-12T09:10:46.333Z,15.31
2023-04-12T09:13:12.913Z,15.89
2023-04-12T09:15:51.197Z,16.79
2023-04-12T09:18:18.644Z,17.56
2023-04-12T09:20:45.206Z,16.59
2023-04-12T09:23:29.724Z,15.93
2023-04-12T09:25:56.144Z,15.96
2023-04-12T09:28:27.832Z,16.32
2023-04-12T09:30:55.655Z,16.94
2023-04-12T09:33:55.627Z,16.04
2023-04-12T09:36:22.215Z,16.16
2023-04-12T09:39:00.292Z,16.93
2023-04-12T09:41:28.908Z,16.66
2023-04-12T09:43:55.526Z,16.95
2023-04-12T09:46:23.174Z,16.55
2023-04-12T09:48:52.387Z,17.34
2023-04-12T09:51:29.876Z,16.78
2023-04-12T09:53:59.868Z,16.99
2023-04-12T09:56:32.316Z,17.41
2023-04-12T09:59:06.948Z,16.86
2023-04-12T10:01:39.584Z,16.98
2023-04-12T10:04:09.723Z,16.76
2023-04-12T10:06:41.363Z,16.39
2023-04-12T10:09:08.990Z,16.92
2023-04-12T10:11:35.824Z,17.23
2023-04-12T10:14:05.978Z,16.93
2023-04-12T10:16:34.579Z,16.10
2023-04-12T10:19:02.604Z,16.06
2023-04-12T10:21:29.779Z,16.38
2023-04-12T10:23:57.837Z,16.50
2023-04-12T10:26:24.582Z,16.82
2023-04-12T10:29:25.857Z,16.96
2023-04-12T10:32:01.253Z,17.25
2023-04-12T10:34:36.586Z,16.55
2023-04-12T10:37:04.293Z,16.66
2023-04-12T10:39:42.514Z,17.79
2023-04-12T10:42:26.771Z,18.13
2023-04-12T10:44:55.993Z,17.69
2023-04-12T10:47:48.568Z,17.96
2023-04-12T10:50:25.141Z,17.35
2023-04-12T10:53:22.066Z,17.10
2023-04-12T10:55:48.960Z,17.01
2023-04-12T10:58:47.755Z,17.31
2023-04-12T11:01:16.784Z,18.09
2023-04-12T11:04:20.991Z,17.37
2023-04-12T11:06:49.585Z,17.29
2023-04-12T11:09:28.187Z,17.06
2023-04-12T11:12:03.826Z,16.89
2023-04-12T11:14:50.248Z,16.98
2023-04-12T11:17:16.810Z,17.25
2023-04-12T11:19:45.392Z,15.93
2023-04-12T11:22:13.959Z,16.40
2023-04-12T11:24:41.517Z,17.28
2023-04-12T11:27:08.441Z,17.31
2023-04-12T11:29:35.251Z,17.20
2023-04-12T11:32:16.842Z,17.52
2023-04-12T11:34:45.211Z,16.58
2023-04-12T11:37:12.087Z,16.25
2023-04-12T11:39:43.657Z,16.59
2023-04-12T11:42:19.759Z,16.34
2023-04-12T11:47:18.056Z,16.71
2023-04-12T11:49:52.148Z,16.43
2023-04-12T11:52:19.635Z,15.39
2023-04-12T11:54:47.917Z,15.69
2023-04-12T11:57:16.144Z,15.55
2023-04-12T11:59:47.123Z,15.39
2023-04-12T12:02:22.586Z,15.20
2023-04-12T12:04:50.786Z,15.07
2023-04-12T12:07:17.992Z,15.03
2023-04-12T12:09:45.738Z,15.42
2023-04-12T12:12:13.717Z,15.16
2023-04-12T12:14:40.863Z,14.94
2023-04-12T12:17:12.196Z,14.92
2023-04-12T12:19:42.737Z,15.27
2023-04-12T12:22:22.249Z,14.82
2023-04-12T12:24:55.146Z,15.38
2023-04-12T12:27:30.923Z,15.36
2023-04-12T12:30:01.619Z,15.66
2023-04-12T12:32:34.032Z,15.68
2023-04-12T12:35:02.115Z,15.39
2023-04-12T12:37:30.109Z,15.93
2023-04-12T12:40:16.356Z,16.55
2023-04-12T12:42:52.597Z,16.71
2023-04-12T12:45:20.603Z,17.11
2023-04-12T12:48:00.416Z,16.69
2023-04-12T12:50:28.553Z,16.52
2023-04-12T12:52:55.796Z,15.71
2023-04-12T12:55:23.495Z,15.81
2023-04-12T12:58:07.436Z,15.73
2023-04-12T13:00:34.831Z,15.19
2023-04-12T13:03:01.871Z,14.92
2023-04-12T13:05:28.684Z,14.84
2023-04-12T13:07:55.100Z,14.88
2023-04-12T13:10:21.700Z,14.85
2023-04-12T13:12:48.126Z,14.82
2023-04-12T13:17:44.134Z,15.01
2023-04-12T13:20:11.044Z,15.30
2023-04-12T13:22:37.926Z,15.29
2023-04-12T13:25:04.720Z,15.13
2023-04-12T13:27:32.119Z,15.17
2023-04-12T13:29:58.680Z,15.27
2023-04-12T13:32:25.204Z,15.27
2023-04-12T13:34:52.237Z,15.09
2023-04-12T13:37:18.698Z,14.94
2023-04-12T13:39:45.486Z,15.14
2023-04-12T13:42:12.072Z,15.42
2023-04-12T13:44:38.579Z,15.29
2023-04-12T13:47:05.262Z,15.18
2023-04-12T13:49:31.645Z,15.23
2023-04-12T13:51:58.163Z,14.97
2023-04-12T13:54:24.633Z,14.77
2023-04-12T13:56:51.183Z,14.65
2023-04-12T13:59:17.790Z,14.67
2023-04-12T14:01:44.467Z,14.73
2023-04-12T14:04:11.245Z,14.78
2023-04-12T14:06:38.743Z,14.75
2023-04-12T14:09:08.866Z,14.79
2023-04-12T14:11:46.811Z,14.89
2023-04-12T14:14:16.121Z,14.93
2023-04-12T14:16:44.815Z,14.96
2023-04-12T14:19:13.313Z,14.92
2023-04-12T14:21:39.845Z,14.59
2023-04-12T14:24:06.317Z,14.38
2023-04-12T14:26:36.458Z,14.07
2023-04-12T14:29:02.831Z,14.06
2023-04-12T14:31:29.254Z,13.84
2023-04-12T14:33:55.788Z,13.77
2023-04-12T14:36:22.326Z,13.62
2023-04-12T14:38:49.668Z,13.49
2023-04-12T14:41:16.945Z,13.28
2023-04-12T14:43:43.463Z,13.08
2023-04-12T14:46:11.830Z,13.01
2023-04-12T14:48:38.439Z,13.03
2023-04-12T14:51:06.430Z,13.08
2023-04-12T14:53:34.003Z,13.04
2023-04-12T14:56:02.475Z,13.05
2023-04-12T14:58:30.037Z,12.97
2023-04-12T15:00:58.003Z,12.78
2023-04-12T15:03:26.702Z,12.62
2023-04-12T15:05:53.320Z,12.26
2023-04-12T15:08:19.837Z,11.92
2023-04-12T15:10:46.541Z,11.72
2023-04-12T15:13:14.017Z,11.58
2023-04-12T15:15:41.645Z,11.52
2023-04-12T15:18:08.741Z,11.46
2023-04-12T15:20:35.984Z,11.40
2023-04-12T15:23:02.808Z,11.30
2023-04-12T15:25:30.952Z,11.13
2023-04-12T15:27:57.621Z,10.94
2023-04-12T15:30:25.178Z,10.86
2023-04-12T15:32:52.391Z,10.75
2023-04-12T15:35:26.501Z,10.66
2023-04-12T15:37:55.069Z,10.50
2023-04-12T15:40:22.870Z,10.44
2023-04-12T15:42:51.124Z,10.48
2023-04-12T15:45:18.169Z,10.48
2023-04-12T15:47:46.359Z,10.43
2023-04-12T15:50:13.131Z,10.37
2023-04-12T15:52:42.861Z,10.45
2023-04-12T15:55:11.853Z,10.46
2023-04-12T15:57:38.556Z,10.50
2023-04-12T16:00:21.092Z,10.54
2023-04-12T16:02:53.412Z,10.49
2023-04-12T16:05:21.073Z,10.49
2023-04-12T16:07:51.368Z,10.59
2023-04-12T16:10:22.480Z,10.51
2023-04-12T16:12:50.100Z,10.46
2023-04-12T16:15:17.606Z,10.38
2023-04-12T16:17:45.060Z,10.29
2023-04-12T16:20:13.456Z,10.32
2023-04-12T16:22:40.884Z,10.29
2023-04-12T16:25:08.432Z,10.31
2023-04-12T16:27:34.948Z,10.39
2023-04-12T16:30:04.239Z,10.39
2023-04-12T16:32:31.818Z,10.42
2023-04-12T16:34:59.034Z,10.50
2023-04-12T16:37:28.268Z,10.44
2023-04-12T16:39:54.613Z,10.39
2023-04-12T16:42:22.847Z,10.42
2023-04-12T16:44:49.682Z,10.46
2023-04-12T16:47:16.253Z,10.46
2023-04-12T16:49:43.335Z,10.42
2023-04-12T16:52:09.850Z,10.47
2023-04-12T16:54:36.455Z,10.37
2023-04-12T16:57:04.063Z,10.31
2023-04-12T16:59:34.351Z,10.27
2023-04-12T17:02:01.207Z,10.30
2023-04-12T17:04:28.009Z,10.33
2023-04-12T17:06:54.571Z,10.35
2023-04-12T17:09:21.017Z,10.42
2023-04-12T17:11:47.507Z,10.54
2023-04-12T17:14:14.826Z,10.49
2023-04-12T17:16:41.500Z,10.57
2023-04-12T17:19:10.489Z,10.65
2023-04-12T17:21:41.394Z,10.82
2023-04-12T17:24:08.405Z,10.92
2023-04-12T17:26:35.023Z,10.96
2023-04-12T17:29:02.310Z,11.00
2023-04-12T17:34:01.524Z,11.10
2023-04-12T17:36:31.609Z,11.15
2023-04-12T17:38:59.723Z,11.15
2023-04-12T17:41:30.292Z,11.20
2023-04-12T17:43:56.953Z,11.35
2023-04-12T17:46:24.570Z,11.31
2023-04-12T17:48:51.153Z,11.40
2023-04-12T17:51:17.529Z,11.41
2023-04-12T17:53:43.976Z,11.31
2023-04-12T17:56:10.645Z,11.34
2023-04-12T17:58:37.124Z,11.39
2023-04-12T18:01:03.722Z,11.37
2023-04-12T18:03:31.511Z,11.41
2023-04-12T18:05:59.468Z,11.35
2023-04-12T18:08:25.873Z,11.38
2023-04-12T18:10:52.424Z,11.31
2023-04-12T18:13:19.023Z,11.14
2023-04-12T18:15:45.592Z,11.12
2023-04-12T18:18:12.486Z,11.03
2023-04-12T18:20:39.051Z,10.93
2023-04-12T18:23:05.525Z,10.90
2023-04-12T18:25:32.254Z,10.94
2023-04-12T18:27:59.020Z,10.90
2023-04-12T18:30:25.687Z,10.83
2023-04-12T18:32:52.342Z,10.93
2023-04-12T18:35:19.117Z,10.96
2023-04-12T18:37:45.700Z,10.98
2023-04-12T18:40:13.185Z,11.04
2023-04-12T18:42:39.691Z,11.03
2023-04-12T18:45:06.753Z,10.97
2023-04-12T18:47:33.394Z,10.96
2023-04-12T18:49:59.961Z,10.98
2023-04-12T18:52:26.611Z,10.95
2023-04-12T18:54:53.076Z,10.91
2023-04-12T18:57:19.657Z,10.91
2023-04-12T18:59:48.848Z,10.96
2023-04-12T19:02:18.245Z,10.89
2023-04-12T19:04:44.798Z,10.82
2023-04-12T19:07:11.311Z,10.70
2023-04-12T19:09:37.962Z,10.69
2023-04-12T19:12:05.288Z,10.70
2023-04-12T19:14:32.070Z,10.65
2023-04-12T19:17:02.544Z,10.67
2023-04-12T19:19:29.148Z,10.67
2023-04-12T19:21:55.812Z,10.63
2023-04-12T19:24:22.442Z,10.69
2023-04-12T19:26:49.992Z,10.71
2023-04-12T19:29:16.607Z,10.77
2023-04-12T19:31:43.785Z,10.77
2023-04-12T19:34:11.684Z,10.82
2023-04-12T19:36:38.419Z,10.79
2023-04-12T19:39:05.104Z,10.86
2023-04-12T19:41:31.650Z,10.83
2023-04-12T19:43:58.235Z,10.88
2023-04-12T19:46:25.065Z,10.89
2023-04-12T19:48:53.375Z,10.86
2023-04-12T19:51:19.962Z,10.91
2023-04-12T19:53:49.018Z,10.86
2023-04-12T19:56:15.520Z,10.88
2023-04-12T19:58:42.247Z,10.80
2023-04-12T20:01:09.962Z,10.67
2023-04-12T20:03:37.644Z,10.71
2023-04-12T20:06:05.285Z,10.77
2023-04-12T20:08:32.145Z,10.81
2023-04-12T20:10:59.242Z,10.77
2023-04-12T20:13:25.930Z,10.76
2023-04-12T20:15:54.107Z,10.76
2023-04-12T20:18:20.599Z,10.76
2023-04-12T20:20:47.387Z,10.86
2023-04-12T20:23:14.197Z,10.82
2023-04-12T20:25:41.502Z,10.91
2023-04-12T20:28:10.645Z,10.95
2023-04-12T20:30:39.318Z,11.00
2023-04-12T20:33:06.879Z,11.00
2023-04-12T20:35:33.356Z,11.09
2023-04-12T20:38:00.423Z,11.06
2023-04-12T20:40:29.666Z,11.12
2023-04-12T20:42:56.802Z,11.11
2023-04-12T20:45:23.625Z,11.11
2023-04-12T20:47:50.211Z,11.14
2023-04-12T20:50:18.594Z,11.16
2023-04-12T20:52:45.478Z,11.11
2023-04-12T20:55:14.039Z,11.04
2023-04-12T20:57:40.768Z,11.09
2023-04-12T21:00:23.718Z,11.16
2023-04-12T21:02:50.871Z,11.14
2023-04-12T21:05:17.520Z,11.11
2023-04-12T21:07:46.880Z,11.16
2023-04-12T21:10:14.772Z,11.13
2023-04-12T21:12:44.993Z,11.22
2023-04-12T21:15:12.136Z,11.19
2023-04-12T21:17:39.035Z,11.25
2023-04-12T21:20:13.648Z,11.25
2023-04-12T21:22:41.906Z,11.24
2023-04-12T21:25:13.683Z,11.25
2023-04-12T21:27:42.423Z,11.22
2023-04-12T21:30:12.529Z,11.24
2023-04-12T21:32:39.663Z,11.16
2023-04-12T21:35:08.367Z,11.12
2023-04-12T21:37:37.937Z,11.18
2023-04-12T21:40:09.117Z,11.15
2023-04-12T21:42:37.049Z,11.20
2023-04-12T21:45:05.789Z,11.16
2023-04-12T21:47:32.529Z,11.14
2023-04-12T21:49:59.111Z,11.14
2023-04-12T21:52:26.595Z,11.21
2023-04-12T21:54:54.082Z,11.12
2023-04-12T21:57:20.749Z,11.33
2023-04-12T21:59:47.204Z,11.29
2023-04-12T22:02:14.082Z,11.21
2023-04-12T22:04:41.198Z,11.17
2023-04-12T22:07:12.471Z,11.20
2023-04-12T22:09:40.076Z,11.21
2023-04-12T22:12:07.092Z,11.34
2023-04-12T22:14:37.042Z,11.42
2023-04-12T22:17:04.283Z,11.26
2023-04-12T22:19:30.734Z,11.17
2023-04-12T22:21:57.414Z,11.23
2023-04-12T22:24:25.295Z,11.36
2023-04-12T22:26:51.692Z,11.28
2023-04-12T22:29:18.652Z,11.27
2023-04-12T22:31:45.351Z,11.34
2023-04-12T22:34:11.733Z,11.42
2023-04-12T22:36:42.109Z,11.47
2023-04-12T22:39:15.366Z,11.38
2023-04-12T22:41:41.908Z,11.40
2023-04-12T22:44:09.324Z,11.43
2023-04-12T22:46:39.150Z,11.31
2023-04-12T22:49:05.773Z,11.31
2023-04-12T22:51:32.590Z,11.23
2023-04-12T22:53:59.434Z,11.24
2023-04-12T22:56:27.179Z,11.27
2023-04-12T22:58:53.782Z,11.21
2023-04-12T23:01:21.482Z,11.33
2023-04-12T23:03:47.991Z,11.39
2023-04-12T23:06:14.617Z,11.39
2023-04-12T23:08:41.138Z,11.29
2023-04-12T23:11:08.328Z,11.26
2023-04-12T23:13:35.281Z,11.47
2023-04-12T23:16:03.906Z,11.42
2023-04-12T23:18:30.832Z,11.31
2023-04-12T23:20:57.560Z,11.41
2023-04-12T23:23:27.102Z,11.37
2023-04-12T23:25:54.755Z,11.35
2023-04-12T23:28:24.282Z,11.33
2023-04-12T23:30:51.829Z,11.36
2023-04-12T23:33:21.010Z,11.46
2023-04-12T23:35:58.471Z,11.48
2023-04-12T23:38:32.675Z,11.39
2023-04-12T23:41:04.086Z,11.39
2023-04-12T23:43:32.563Z,11.43
2023-04-12T23:45:59.461Z,11.40
2023-04-12T23:48:26.238Z,11.35
2023-04-12T23:50:52.887Z,11.34
2023-04-12T23:53:19.954Z,11.34
2023-04-12T23:55:49.099Z,11.31
2023-04-12T23:58:16.220Z,11.25
